Time;durP1;ratioP1;P1;durP2;ratioP2;P2;SDS_P1;SDS_P2;PMS_P1;PMS_P2;Temp;Humidity;BMP_temperature;BMP_pressure;BME280_temperature;BME280_humidity;BME280_pressure;Samples;Min_cycle;Max_cycle;Signal;HPM_P1;HPM_P2
2023/06/28 00:01:41;;;;;;;18.93;17.93;;;15.30;99.90;;;;;;5033653;28;20503;-66
2023/06/28 00:04:08;;;;;;;18.57;17.67;;;15.30;99.90;;;;;;5037355;28;20514;-67
2023/06/28 00:06:35;;;;;;;18.63;17.73;;;15.30;99.90;;;;;;5035908;28;20463;-66
2023/06/28 00:09:02;;;;;;;19.27;18.27;;;15.20;99.90;;;;;;5045476;28;20796;-68
2023/06/28 00:11:29;;;;;;;18.97;18.07;;;15.20;99.90;;;;;;5037414;28;20456;-67
2023/06/28 00:13:56;;;;;;;18.67;17.77;;;15.20;99.90;;;;;;5031137;28;20619;-66
2023/06/28 00:16:24;;;;;;;18.23;17.33;;;15.20;99.90;;;;;;5036047;28;20502;-66
2023/06/28 00:18:51;;;;;;;18.43;17.53;;;15.20;99.90;;;;;;5037786;28;20823;-67
2023/06/28 00:21:19;;;;;;;18.43;17.53;;;15.20;99.90;;;;;;5037972;28;20457;-66
2023/06/28 00:23:46;;;;;;;18.13;17.23;;;15.20;99.90;;;;;;5042068;28;20979;-67
2023/06/28 00:26:13;;;;;;;17.97;17.17;;;15.20;99.90;;;;;;5034860;28;20490;-66
2023/06/28 00:28:41;;;;;;;17.47;16.67;;;15.20;99.90;;;;;;5037806;28;20647;-66
2023/06/28 00:31:08;;;;;;;17.50;16.70;;;15.10;99.90;;;;;;5036741;28;20503;-66
2023/06/28 00:33:37;;;;;;;17.50;16.70;;;15.20;99.90;;;;;;5038111;28;20853;-67
2023/06/28 00:36:05;;;;;;;18.10;17.30;;;15.10;99.90;;;;;;5042236;28;20463;-68
2023/06/28 00:38:31;;;;;;;17.93;17.13;;;15.00;99.90;;;;;;5043688;28;20703;-66
2023/06/28 00:40:58;;;;;;;17.43;16.63;;;14.90;99.90;;;;;;5044221;28;20460;-67
2023/06/28 00:43:25;;;;;;;17.77;16.97;;;14.90;99.90;;;;;;5035895;28;20522;-66
2023/06/28 00:45:52;;;;;;;17.67;16.87;;;14.90;99.90;;;;;;5038061;28;20848;-66
2023/06/28 00:48:19;;;;;;;18.37;17.47;;;15.00;99.90;;;;;;5036391;28;20956;-66
2023/06/28 00:50:47;;;;;;;17.87;16.97;;;15.00;99.90;;;;;;5040566;28;20467;-66
2023/06/28 00:53:16;;;;;;;17.27;16.47;;;15.10;99.90;;;;;;5031124;28;20921;-68
2023/06/28 00:55:43;;;;;;;16.90;16.10;;;14.90;99.90;;;;;;5038876;28;20906;-67
2023/06/28 00:58:10;;;;;;;17.33;16.53;;;14.90;99.90;;;;;;5047251;28;20471;-66
2023/06/28 01:00:37;;;;;;;17.37;16.57;;;14.90;99.90;;;;;;5038410;28;20460;-67
2023/06/28 01:03:05;;;;;;;17.70;16.90;;;14.90;99.90;;;;;;5043599;28;20464;-66
2023/06/28 01:05:32;;;;;;;16.90;16.10;;;14.90;99.90;;;;;;5041707;28;20471;-67
2023/06/28 01:08:04;;;;;;;16.90;16.10;;;15.00;99.90;;;;;;5037448;28;20558;-67
2023/06/28 01:10:31;;;;;;;17.70;16.90;;;15.00;99.90;;;;;;5037522;28;20468;-67
2023/06/28 01:12:58;;;;;;;17.30;16.50;;;15.00;99.90;;;;;;5047380;28;20499;-65
2023/06/28 01:15:25;;;;;;;17.13;16.33;;;15.00;99.90;;;;;;5041552;28;20499;-65
2023/06/28 01:17:51;;;;;;;17.67;16.87;;;15.00;99.90;;;;;;5039933;28;20608;-65
2023/06/28 01:20:19;;;;;;;17.53;16.73;;;15.00;99.90;;;;;;5042769;28;20510;-65
2023/06/28 01:22:55;;;;;;;20.17;19.17;;;15.00;99.90;;;;;;5047378;28;20473;-66
2023/06/28 01:25:22;;;;;;;17.37;16.57;;;15.00;99.90;;;;;;5040090;28;20463;-66
2023/06/28 01:27:49;;;;;;;17.70;16.90;;;15.00;99.90;;;;;;5043729;28;20859;-67
2023/06/28 01:30:17;;;;;;;18.27;17.37;;;14.90;99.90;;;;;;5034354;28;20459;-65
2023/06/28 01:32:44;;;;;;;17.50;16.70;;;14.90;99.90;;;;;;5041524;28;20488;-66
2023/06/28 01:35:14;;;;;;;18.17;17.27;;;15.00;99.90;;;;;;5041937;28;20540;-67
2023/06/28 01:37:41;;;;;;;17.83;16.93;;;15.00;99.90;;;;;;5048725;28;20487;-66
2023/06/28 01:40:12;;;;;;;17.13;16.33;;;15.00;99.90;;;;;;5042924;28;20553;-67
2023/06/28 01:42:40;;;;;;;16.80;16.00;;;15.00;99.90;;;;;;5037109;28;20935;-67
2023/06/28 01:45:08;;;;;;;17.00;16.20;;;14.90;99.90;;;;;;5046373;28;20469;-67
2023/06/28 01:47:35;;;;;;;17.13;16.33;;;14.90;99.90;;;;;;5029048;28;20474;-65
2023/06/28 01:50:02;;;;;;;17.23;16.43;;;14.80;99.90;;;;;;5038581;28;20556;-68
2023/06/28 01:52:29;;;;;;;17.17;16.37;;;14.80;99.90;;;;;;5043118;28;20484;-65
2023/06/28 01:54:57;;;;;;;17.03;16.23;;;14.80;99.90;;;;;;5048768;28;20467;-65
2023/06/28 01:57:25;;;;;;;16.70;15.90;;;14.90;99.90;;;;;;5046549;28;20820;-66
2023/06/28 01:59:52;;;;;;;17.23;16.43;;;14.80;99.90;;;;;;5040225;28;20691;-67
2023/06/28 02:02:18;;;;;;;17.20;16.40;;;14.90;99.90;;;;;;5043983;28;20471;-65
2023/06/28 02:04:46;;;;;;;17.30;16.50;;;14.80;99.90;;;;;;5037006;28;20445;-65
2023/06/28 02:07:13;;;;;;;16.40;15.67;;;14.80;99.90;;;;;;5041281;28;20452;-65
2023/06/28 02:09:40;;;;;;;16.37;15.67;;;14.90;99.90;;;;;;5037171;28;20459;-65
2023/06/28 02:12:07;;;;;;;16.03;15.33;;;14.90;99.90;;;;;;5034923;28;20467;-67
2023/06/28 02:14:39;;;;;;;16.30;15.60;;;14.90;99.90;;;;;;5044944;28;20557;-66
2023/06/28 02:17:07;;;;;;;15.60;14.90;;;14.90;99.90;;;;;;5037123;28;20603;-67
2023/06/28 02:19:35;;;;;;;16.43;15.73;;;14.90;99.90;;;;;;5047137;28;20483;-66
2023/06/28 02:22:02;;;;;;;16.10;15.40;;;14.90;99.90;;;;;;5040891;28;20677;-66
2023/06/28 02:24:29;;;;;;;15.60;14.90;;;14.90;99.90;;;;;;5042314;28;20966;-65
2023/06/28 02:26:56;;;;;;;15.70;15.00;;;14.90;99.90;;;;;;5041716;28;20461;-67
2023/06/28 02:29:23;;;;;;;15.50;14.80;;;14.90;99.90;;;;;;5037588;28;20472;-66
2023/06/28 02:31:51;;;;;;;16.17;15.47;;;14.90;99.90;;;;;;5041446;28;20464;-66
2023/06/28 02:34:18;;;;;;;16.00;15.30;;;14.90;99.90;;;;;;5039598;28;20501;-65
2023/06/28 02:36:45;;;;;;;16.53;15.80;;;15.00;99.90;;;;;;5034585;28;20551;-65
2023/06/28 02:39:11;;;;;;;16.27;15.57;;;15.10;99.90;;;;;;5036775;28;20507;-65
2023/06/28 02:41:38;;;;;;;15.90;15.20;;;15.10;99.90;;;;;;5035693;28;20464;-67
2023/06/28 02:44:05;;;;;;;16.13;15.43;;;15.20;99.90;;;;;;5044210;28;20463;-66
2023/06/28 02:46:32;;;;;;;16.00;15.30;;;15.30;99.90;;;;;;5035493;28;20539;-66
2023/06/28 02:49:01;;;;;;;15.10;14.50;;;15.30;99.90;;;;;;5038225;28;20474;-65
2023/06/28 02:51:27;;;;;;;15.30;14.70;;;15.30;99.90;;;;;;5041729;28;20483;-66
2023/06/28 02:53:54;;;;;;;14.70;14.10;;;15.40;99.90;;;;;;5047769;28;20492;-65
2023/06/28 02:56:23;;;;;;;15.47;14.80;;;15.40;99.90;;;;;;5046805;28;20894;-66
2023/06/28 02:58:50;;;;;;;16.00;15.30;;;15.40;99.90;;;;;;5035877;28;20816;-65
2023/06/28 03:01:17;;;;;;;15.60;14.90;;;15.40;99.90;;;;;;5034339;28;20457;-66
2023/06/28 03:03:44;;;;;;;15.77;15.07;;;15.50;99.90;;;;;;5042338;28;20547;-65
2023/06/28 03:06:12;;;;;;;16.57;15.87;;;15.40;99.90;;;;;;5039621;28;20997;-65
2023/06/28 03:08:40;;;;;;;16.30;15.60;;;15.40;99.90;;;;;;5038482;28;20955;-65
2023/06/28 03:11:08;;;;;;;16.53;15.83;;;15.50;99.90;;;;;;5042350;28;20974;-65
2023/06/28 03:13:35;;;;;;;16.90;16.10;;;15.60;99.90;;;;;;5033925;28;20485;-66
2023/06/28 03:16:02;;;;;;;17.07;16.27;;;15.60;99.90;;;;;;5043301;28;21029;-66
2023/06/28 03:18:29;;;;;;;16.60;15.80;;;15.70;99.90;;;;;;5039507;28;20986;-67
2023/06/28 03:20:56;;;;;;;16.77;16.07;;;15.70;99.90;;;;;;5039136;28;20472;-65
2023/06/28 03:23:25;;;;;;;16.53;15.80;;;15.70;99.90;;;;;;5045202;28;21052;-65
2023/06/28 03:25:52;;;;;;;16.73;15.93;;;15.80;99.90;;;;;;5037513;28;20487;-65
2023/06/28 03:28:19;;;;;;;16.90;16.10;;;15.80;99.90;;;;;;5040921;28;20465;-65
2023/06/28 03:30:46;;;;;;;16.83;16.03;;;15.80;99.90;;;;;;5033637;28;20464;-66
2023/06/28 03:33:13;;;;;;;16.80;16.00;;;15.80;99.90;;;;;;5035131;28;20489;-67
2023/06/28 03:35:40;;;;;;;16.83;16.03;;;15.80;99.90;;;;;;5043240;28;20455;-67
2023/06/28 03:38:07;;;;;;;17.10;16.30;;;15.80;99.90;;;;;;5042766;28;20591;-66
2023/06/28 03:40:36;;;;;;;17.30;16.50;;;15.60;99.90;;;;;;5035585;28;20465;-65
2023/06/28 03:43:03;;;;;;;17.13;16.33;;;15.60;99.90;;;;;;5044541;28;20538;-66
2023/06/28 03:45:30;;;;;;;17.57;16.77;;;15.60;99.90;;;;;;5044071;28;20468;-66
2023/06/28 03:47:56;;;;;;;17.67;16.80;;;15.70;99.90;;;;;;5043125;28;20809;-67
2023/06/28 03:50:23;;;;;;;18.20;17.30;;;15.80;99.90;;;;;;5041504;28;20474;-67
2023/06/28 03:52:50;;;;;;;18.50;17.60;;;15.80;99.90;;;;;;5039968;28;20510;-65
2023/06/28 03:55:17;;;;;;;18.20;17.30;;;15.80;99.90;;;;;;5035828;28;20812;-65
2023/06/28 03:57:45;;;;;;;18.30;17.40;;;15.70;99.90;;;;;;5038043;28;20517;-65
2023/06/28 04:00:13;;;;;;;17.60;16.77;;;15.70;99.90;;;;;;5035319;28;20836;-67
2023/06/28 04:02:40;;;;;;;19.10;18.13;;;15.70;99.90;;;;;;5044691;28;20521;-66
2023/06/28 04:05:07;;;;;;;17.40;16.60;;;15.60;99.90;;;;;;5037447;28;20863;-65
2023/06/28 04:07:35;;;;;;;18.47;17.57;;;15.60;99.90;;;;;;5045505;28;20467;-65
2023/06/28 04:10:03;;;;;;;17.67;16.87;;;15.50;99.90;;;;;;5036011;28;20465;-65
2023/06/28 04:12:30;;;;;;;18.20;17.30;;;15.60;99.90;;;;;;5042955;28;20463;-65
2023/06/28 04:14:59;;;;;;;18.50;17.60;;;15.50;99.90;;;;;;5036904;28;21013;-66
2023/06/28 04:17:26;;;;;;;17.93;17.03;;;15.50;99.90;;;;;;5026669;28;20962;-66
2023/06/28 04:19:53;;;;;;;17.20;16.40;;;15.60;99.90;;;;;;5041983;28;20459;-67
2023/06/28 04:22:20;;;;;;;18.03;17.13;;;15.60;99.90;;;;;;5034003;28;20468;-65
2023/06/28 04:24:47;;;;;;;17.80;16.90;;;15.70;99.90;;;;;;5042740;28;20544;-67
2023/06/28 04:27:14;;;;;;;17.50;16.60;;;15.70;99.90;;;;;;5040033;28;20475;-67
2023/06/28 04:29:42;;;;;;;18.73;17.73;;;15.70;99.90;;;;;;5038835;28;20462;-65
2023/06/28 04:32:23;;;;;;;17.80;16.90;;;15.80;99.90;;;;;;5037304;28;20471;-67
2023/06/28 04:34:52;;;;;;;18.33;17.43;;;15.80;99.90;;;;;;5044609;28;20515;-68
2023/06/28 04:37:19;;;;;;;18.30;17.40;;;15.80;99.90;;;;;;5047728;28;20499;-66
2023/06/28 04:39:47;;;;;;;18.73;17.73;;;15.80;99.90;;;;;;5044567;28;20845;-66
2023/06/28 04:42:15;;;;;;;17.83;16.93;;;15.80;99.90;;;;;;5037589;28;20463;-66
2023/06/28 04:44:43;;;;;;;18.53;17.63;;;15.90;99.90;;;;;;5046217;28;20946;-65
2023/06/28 04:47:15;;;;;;;18.30;17.40;;;15.90;99.90;;;;;;5032319;28;20512;-65
2023/06/28 04:49:46;;;;;;;17.80;16.90;;;15.90;99.90;;;;;;5043240;28;20463;-66
2023/06/28 04:52:14;;;;;;;18.53;17.63;;;15.90;99.90;;;;;;5042632;28;20554;-66
2023/06/28 04:54:41;;;;;;;18.87;17.87;;;15.90;99.90;;;;;;5042118;28;20578;-66
2023/06/28 04:57:08;;;;;;;18.70;17.70;;;15.80;99.90;;;;;;5038611;28;20472;-66
2023/06/28 04:59:35;;;;;;;18.47;17.57;;;15.80;99.90;;;;;;5035981;28;20964;-65
2023/06/28 05:02:05;;;;;;;18.27;17.37;;;15.80;99.90;;;;;;5029052;28;20735;-66
2023/06/28 05:04:33;;;;;;;17.60;16.70;;;15.80;99.90;;;;;;5034589;28;20467;-67
2023/06/28 05:07:04;;;;;;;17.70;16.80;;;15.80;99.90;;;;;;5035798;28;20487;-65
2023/06/28 05:09:31;;;;;;;17.73;16.83;;;15.80;99.90;;;;;;5040394;28;20910;-67
2023/06/28 05:11:58;;;;;;;17.73;16.83;;;15.80;99.90;;;;;;5047478;28;20513;-67
2023/06/28 05:14:25;;;;;;;18.33;17.43;;;15.80;99.90;;;;;;5035496;28;21018;-65
2023/06/28 05:16:53;;;;;;;19.03;18.03;;;15.90;99.90;;;;;;5044226;28;20460;-66
2023/06/28 05:19:22;;;;;;;19.90;18.90;;;16.00;99.90;;;;;;5049045;28;20467;-66
2023/06/28 05:21:48;;;;;;;18.30;17.40;;;16.10;99.90;;;;;;5040710;28;20827;-65
2023/06/28 05:24:17;;;;;;;18.23;17.33;;;16.10;99.90;;;;;;5039495;28;20498;-67
2023/06/28 05:26:45;;;;;;;20.43;19.33;;;16.10;99.90;;;;;;5048357;28;20456;-67
2023/06/28 05:29:13;;;;;;;17.93;17.03;;;16.10;99.90;;;;;;5033613;28;20479;-67
2023/06/28 05:31:42;;;;;;;20.10;19.10;;;16.10;99.90;;;;;;5041286;28;20468;-66
2023/06/28 05:34:11;;;;;;;18.20;17.30;;;16.20;99.90;;;;;;5038303;28;20490;-65
2023/06/28 05:36:38;;;;;;;18.40;17.40;;;16.20;99.90;;;;;;5038093;28;20885;-67
2023/06/28 05:39:05;;;;;;;18.43;17.43;;;16.30;99.90;;;;;;5036392;28;20469;-66
2023/06/28 05:41:35;;;;;;;18.13;17.20;;;16.30;99.90;;;;;;5042763;28;20934;-66
2023/06/28 05:44:01;;;;;;;19.57;18.47;;;16.30;99.90;;;;;;5045495;28;20525;-65
2023/06/28 05:46:28;;;;;;;19.03;18.03;;;16.40;99.90;;;;;;5038616;28;20497;-65
2023/06/28 05:48:58;;;;;;;18.60;17.60;;;16.40;99.90;;;;;;5044137;28;21099;-66
2023/06/28 05:51:25;;;;;;;18.10;17.20;;;16.40;99.90;;;;;;5034347;28;20553;-66
2023/06/28 05:53:52;;;;;;;18.60;17.60;;;16.40;99.90;;;;;;5034389;28;20622;-66
2023/06/28 05:56:20;;;;;;;18.47;17.57;;;16.40;99.90;;;;;;5039291;28;20555;-67
2023/06/28 05:58:49;;;;;;;18.50;17.60;;;16.40;99.90;;;;;;5041564;28;20468;-65
2023/06/28 06:01:15;;;;;;;18.87;17.87;;;16.40;99.90;;;;;;5040644;28;20555;-67
2023/06/28 06:03:42;;;;;;;19.50;18.50;;;16.40;99.90;;;;;;5041688;28;20547;-67
2023/06/28 06:06:09;;;;;;;19.10;18.10;;;16.60;99.90;;;;;;5035411;28;20962;-66
2023/06/28 06:08:36;;;;;;;19.23;18.23;;;16.60;99.90;;;;;;5042172;28;20456;-67
2023/06/28 06:11:03;;;;;;;18.43;17.43;;;16.60;99.90;;;;;;5044109;28;20966;-66
2023/06/28 06:13:29;;;;;;;18.63;17.63;;;16.60;99.90;;;;;;5034985;28;20461;-66
2023/06/28 06:15:58;;;;;;;18.07;17.17;;;16.60;99.90;;;;;;5039836;28;20502;-68
2023/06/28 06:18:26;;;;;;;19.20;18.20;;;16.70;99.90;;;;;;5033011;28;20479;-66
2023/06/28 06:20:53;;;;;;;19.80;18.70;;;16.70;99.90;;;;;;5043362;28;20547;-66
2023/06/28 06:23:20;;;;;;;19.93;18.83;;;16.70;99.90;;;;;;5045097;28;20492;-65
2023/06/28 06:25:47;;;;;;;19.30;18.27;;;16.80;99.90;;;;;;5032943;28;20995;-66
2023/06/28 06:28:14;;;;;;;18.80;17.80;;;16.80;99.90;;;;;;5043654;28;21068;-66
2023/06/28 06:30:41;;;;;;;18.50;17.50;;;16.70;99.90;;;;;;5044016;28;20526;-66
2023/06/28 06:33:09;;;;;;;17.00;16.20;;;16.70;99.90;;;;;;5040728;28;20463;-67
2023/06/28 06:35:36;;;;;;;18.27;17.37;;;16.70;99.90;;;;;;5039183;28;21034;-66
2023/06/28 06:38:03;;;;;;;16.80;16.00;;;16.70;99.90;;;;;;5048113;28;20866;-66
2023/06/28 06:40:30;;;;;;;16.37;15.57;;;16.80;99.90;;;;;;5038931;28;20464;-67
2023/06/28 06:42:57;;;;;;;15.10;14.40;;;16.80;99.90;;;;;;5043053;28;20547;-66
2023/06/28 06:45:25;;;;;;;13.40;12.80;;;17.00;99.90;;;;;;5042361;28;21144;-66
2023/06/28 06:47:52;;;;;;;13.40;12.80;;;17.10;99.90;;;;;;5038049;28;20559;-67
2023/06/28 06:50:20;;;;;;;13.40;12.80;;;17.10;99.90;;;;;;5039711;28;20468;-67
2023/06/28 06:52:47;;;;;;;13.17;12.60;;;17.00;99.90;;;;;;5039496;28;20538;-67
2023/06/28 06:55:13;;;;;;;13.10;12.50;;;17.10;99.90;;;;;;5036956;28;20487;-66
2023/06/28 06:57:40;;;;;;;12.80;12.30;;;17.10;99.90;;;;;;5031781;28;20466;-66
2023/06/28 07:00:09;;;;;;;12.20;11.70;;;17.30;99.90;;;;;;5041336;28;20470;-66
2023/06/28 07:02:36;;;;;;;12.50;12.00;;;17.40;99.90;;;;;;5032173;28;20506;-66
2023/06/28 07:05:03;;;;;;;12.83;12.33;;;17.20;99.90;;;;;;5032904;28;20459;-66
2023/06/28 07:07:32;;;;;;;13.33;12.73;;;17.20;99.90;;;;;;5035694;28;20471;-66
2023/06/28 07:09:59;;;;;;;13.50;12.90;;;17.20;99.90;;;;;;5041418;28;20460;-66
2023/06/28 07:12:26;;;;;;;13.50;12.90;;;17.20;99.90;;;;;;5029074;28;20456;-66
2023/06/28 07:14:53;;;;;;;14.10;13.50;;;17.20;99.90;;;;;;5033057;28;20979;-68
2023/06/28 07:17:20;;;;;;;13.63;13.03;;;17.30;99.90;;;;;;5040169;28;20517;-66
2023/06/28 07:19:47;;;;;;;14.20;13.60;;;17.50;99.90;;;;;;5045635;28;20468;-66
2023/06/28 07:22:14;;;;;;;14.13;13.53;;;17.50;99.90;;;;;;5033744;28;20684;-66
2023/06/28 07:24:42;;;;;;;14.13;13.53;;;17.60;99.90;;;;;;5036645;28;20513;-67
2023/06/28 07:27:09;;;;;;;16.60;15.40;;;17.70;99.90;;;;;;5043213;28;20473;-66
2023/06/28 07:29:36;;;;;;;15.57;14.87;;;17.90;99.90;;;;;;5038470;28;20469;-66
2023/06/28 07:32:04;;;;;;;15.60;14.90;;;17.90;99.90;;;;;;5037573;28;20464;-65
2023/06/28 07:34:31;;;;;;;17.37;16.57;;;18.00;99.90;;;;;;5034333;28;20891;-66
2023/06/28 07:37:01;;;;;;;16.33;15.53;;;18.20;99.90;;;;;;5039072;28;20463;-65
2023/06/28 07:39:29;;;;;;;17.00;16.17;;;18.30;99.90;;;;;;5031144;28;20978;-67
2023/06/28 07:41:58;;;;;;;17.70;16.80;;;18.40;99.90;;;;;;5035556;28;20464;-66
2023/06/28 07:44:25;;;;;;;17.77;16.87;;;18.60;99.90;;;;;;5033239;28;20469;-67
2023/06/28 07:46:52;;;;;;;17.93;17.03;;;18.80;99.90;;;;;;5026567;28;20491;-67
2023/06/28 07:49:19;;;;;;;18.00;17.00;;;18.80;99.90;;;;;;5039556;28;20468;-66
2023/06/28 07:51:47;;;;;;;17.73;16.83;;;18.80;99.90;;;;;;5026906;28;20825;-65
2023/06/28 07:54:13;;;;;;;18.70;17.70;;;18.70;99.90;;;;;;5035916;28;20651;-66
2023/06/28 07:56:40;;;;;;;17.40;16.60;;;18.60;99.90;;;;;;5030279;28;20527;-67
2023/06/28 07:59:09;;;;;;;16.90;16.10;;;18.60;99.90;;;;;;5037495;28;20467;-67
2023/06/28 08:01:36;;;;;;;17.20;16.40;;;18.70;99.90;;;;;;5032778;28;20465;-65
2023/06/28 08:04:02;;;;;;;17.80;16.90;;;18.80;99.90;;;;;;5026363;28;20917;-65
2023/06/28 08:06:29;;;;;;;18.17;17.27;;;18.90;99.90;;;;;;5034184;28;21227;-66
2023/06/28 08:08:56;;;;;;;18.60;17.70;;;19.10;99.90;;;;;;5044748;28;20559;-67
2023/06/28 08:11:23;;;;;;;17.83;16.93;;;19.20;99.90;;;;;;5034586;28;20488;-66
2023/06/28 08:13:51;;;;;;;17.23;16.43;;;19.30;99.90;;;;;;5042344;28;20460;-67
2023/06/28 08:16:19;;;;;;;16.90;16.10;;;19.40;99.90;;;;;;5041621;28;20525;-67
2023/06/28 08:18:46;;;;;;;17.27;16.43;;;19.30;99.90;;;;;;5035636;28;20547;-67
2023/06/28 08:21:14;;;;;;;16.80;16.00;;;19.30;99.90;;;;;;5034063;28;20456;-65
2023/06/28 08:23:41;;;;;;;16.50;15.70;;;19.40;99.90;;;;;;5043471;28;20474;-66
2023/06/28 08:26:08;;;;;;;16.00;15.30;;;19.40;99.90;;;;;;5038704;28;20464;-68
2023/06/28 08:28:35;;;;;;;16.20;15.50;;;19.40;99.90;;;;;;5039819;28;20465;-66
2023/06/28 08:31:02;;;;;;;15.90;15.20;;;19.30;99.90;;;;;;5035891;28;20467;-66
2023/06/28 08:33:30;;;;;;;16.00;15.30;;;19.30;99.90;;;;;;5035152;28;20958;-65
2023/06/28 08:35:57;;;;;;;15.87;15.17;;;19.40;99.90;;;;;;5034906;28;20491;-66
2023/06/28 08:38:24;;;;;;;16.17;15.47;;;19.60;99.90;;;;;;5041308;28;20917;-67
2023/06/28 08:40:52;;;;;;;16.03;15.33;;;19.60;99.90;;;;;;5033006;28;20988;-67
2023/06/28 08:43:21;;;;;;;16.00;15.30;;;19.70;99.90;;;;;;5040516;28;20474;-66
2023/06/28 08:45:48;;;;;;;16.77;15.97;;;19.80;99.90;;;;;;5034414;28;20566;-67
2023/06/28 08:48:15;;;;;;;17.33;16.53;;;19.80;99.90;;;;;;5035880;28;20460;-67
2023/06/28 08:50:45;;;;;;;16.70;15.90;;;19.80;99.90;;;;;;5039974;28;20495;-66
2023/06/28 08:53:19;;;;;;;16.30;15.60;;;19.70;99.90;;;;;;5036002;28;20476;-67
2023/06/28 08:55:48;;;;;;;16.20;15.50;;;19.80;99.90;;;;;;5033891;28;21028;-66
2023/06/28 08:58:15;;;;;;;16.87;16.07;;;20.00;99.90;;;;;;5043321;28;20872;-68
2023/06/28 09:00:44;;;;;;;18.90;17.83;;;20.10;99.90;;;;;;5038092;28;20784;-66
2023/06/28 09:03:11;;;;;;;16.60;15.80;;;20.00;99.90;;;;;;5034448;28;20820;-67
2023/06/28 09:05:39;;;;;;;16.50;15.70;;;20.20;99.90;;;;;;5033100;28;20467;-66
2023/06/28 09:08:09;;;;;;;16.47;15.67;;;20.20;99.90;;;;;;5039134;28;20854;-66
2023/06/28 09:10:37;;;;;;;16.87;16.07;;;20.40;99.90;;;;;;5031252;28;20798;-67
2023/06/28 09:13:05;;;;;;;16.97;16.00;;;20.50;99.90;;;;;;5031721;28;20959;-66
2023/06/28 09:15:34;;;;;;;16.40;15.60;;;20.70;99.90;;;;;;5032457;28;20853;-67
2023/06/28 09:18:01;;;;;;;16.63;15.83;;;21.10;99.90;;;;;;5035525;28;20463;-67
2023/06/28 09:20:28;;;;;;;16.60;15.80;;;21.10;99.90;;;;;;5032923;28;20966;-67
2023/06/28 09:22:57;;;;;;;16.70;15.90;;;21.40;99.90;;;;;;5034947;28;20472;-67
2023/06/28 09:25:27;;;;;;;16.70;15.90;;;21.70;99.90;;;;;;5028367;28;20476;-66
2023/06/28 09:27:54;;;;;;;16.50;15.70;;;21.70;99.90;;;;;;5036302;28;20827;-67
2023/06/28 09:30:21;;;;;;;17.60;16.70;;;21.60;99.90;;;;;;5030533;28;20860;-66
2023/06/28 09:32:51;;;;;;;17.40;16.50;;;21.40;99.90;;;;;;5040446;28;20838;-67
2023/06/28 09:35:18;;;;;;;16.50;15.70;;;21.30;99.90;;;;;;5036081;28;21002;-68
2023/06/28 09:37:50;;;;;;;16.73;15.93;;;21.30;99.90;;;;;;5036004;28;20460;-67
2023/06/28 09:40:17;;;;;;;16.33;15.53;;;21.30;99.90;;;;;;5040349;28;20895;-66
2023/06/28 09:42:47;;;;;;;16.30;15.50;;;21.10;99.90;;;;;;5038854;28;20555;-65
2023/06/28 09:45:26;;;;;;;32.40;30.57;;;21.10;99.90;;;;;;5037733;28;20455;-66
2023/06/28 09:47:56;;;;;;;15.60;14.93;;;21.10;99.90;;;;;;5040883;28;20875;-67
2023/06/28 09:50:34;;;;;;;16.50;15.50;;;21.50;99.90;;;;;;5037023;28;20460;-65
2023/06/28 09:53:01;;;;;;;16.10;15.40;;;21.60;99.90;;;;;;5033204;28;20464;-66
2023/06/28 09:55:28;;;;;;;15.90;15.20;;;21.50;99.90;;;;;;5034061;28;20489;-66
2023/06/28 09:57:57;;;;;;;17.10;16.40;;;21.60;99.90;;;;;;5034603;28;20463;-67
2023/06/28 10:00:26;;;;;;;16.30;15.60;;;21.80;99.90;;;;;;5043871;28;20891;-66
2023/06/28 10:02:53;;;;;;;15.33;14.73;;;21.80;99.90;;;;;;5033026;28;20857;-65
2023/06/28 10:05:20;;;;;;;15.57;14.97;;;21.90;99.90;;;;;;5040961;28;20527;-66
2023/06/28 10:07:49;;;;;;;15.00;14.50;;;22.00;99.90;;;;;;5038798;28;20475;-65
2023/06/28 10:10:17;;;;;;;15.30;14.73;;;22.30;99.90;;;;;;5037854;28;20526;-65
2023/06/28 10:12:45;;;;;;;15.00;14.50;;;22.50;99.90;;;;;;5034493;28;20519;-66
2023/06/28 10:15:21;;;;;;;15.10;14.60;;;22.90;99.90;;;;;;5034176;28;20560;-67
2023/06/28 10:17:49;;;;;;;15.30;14.73;;;23.10;99.90;;;;;;5033155;28;20464;-67
2023/06/28 10:20:16;;;;;;;15.10;14.60;;;23.10;99.90;;;;;;5034203;28;20579;-66
2023/06/28 10:22:44;;;;;;;14.90;14.40;;;23.20;99.90;;;;;;5033430;28;20452;-67
2023/06/28 10:25:13;;;;;;;18.57;17.77;;;23.10;99.90;;;;;;5032690;28;20471;-67
2023/06/28 10:27:40;;;;;;;20.53;19.30;;;23.70;99.90;;;;;;5036168;28;20464;-67
2023/06/28 10:30:08;;;;;;;16.10;15.30;;;24.10;99.90;;;;;;5037433;28;21053;-67
2023/06/28 10:32:37;;;;;;;19.23;18.03;;;24.30;99.90;;;;;;5038466;28;20464;-67
2023/06/28 10:35:07;;;;;;;17.93;17.03;;;25.00;99.90;;;;;;5035799;28;20582;-68
2023/06/28 10:37:34;;;;;;;15.83;15.23;;;25.40;99.90;;;;;;5043805;28;20471;-68
2023/06/28 10:40:02;;;;;;;16.17;15.47;;;25.90;99.90;;;;;;5031486;28;20475;-68
2023/06/28 10:42:39;;;;;;;16.87;16.17;;;26.00;99.90;;;;;;5038415;28;20479;-68
2023/06/28 10:45:08;;;;;;;16.77;16.07;;;25.90;99.90;;;;;;5039359;28;20459;-68
2023/06/28 10:47:38;;;;;;;16.30;15.60;;;25.90;99.90;;;;;;5039939;28;20548;-68
2023/06/28 10:50:09;;;;;;;16.20;15.50;;;25.80;99.90;;;;;;5035863;28;20453;-68
2023/06/28 10:52:36;;;;;;;16.73;16.03;;;25.30;99.90;;;;;;5035436;28;20460;-68
2023/06/28 10:55:04;;;;;;;18.33;17.43;;;25.80;99.90;;;;;;5032562;28;20460;-68
2023/06/28 10:57:37;;;;;;;18.30;17.20;;;25.90;99.90;;;;;;5026044;28;20539;-68
2023/06/28 11:00:07;;;;;;;17.60;16.80;;;25.90;99.90;;;;;;5033219;28;20452;-67
2023/06/28 11:02:54;;;;;;;16.13;15.53;;;25.80;99.90;;;;;;5034553;28;20817;-67
2023/06/28 11:05:38;;;;;;;16.10;15.50;;;25.90;99.90;;;;;;5033040;28;20456;-68
2023/06/28 11:08:12;;;;;;;16.30;15.70;;;25.80;99.90;;;;;;5031934;28;20507;-68
2023/06/28 11:10:41;;;;;;;17.23;16.60;;;25.80;99.90;;;;;;5035803;28;20460;-67
2023/06/28 11:13:12;;;;;;;17.33;16.67;;;26.10;99.90;;;;;;5033727;28;20467;-66
2023/06/28 11:15:43;;;;;;;30.77;29.50;;;26.00;99.90;;;;;;5034168;28;21049;-67
2023/06/28 11:18:16;;;;;;;18.83;18.10;;;25.40;99.90;;;;;;5039717;28;20491;-67
2023/06/28 11:20:54;;;;;;;25.73;24.63;;;25.80;99.90;;;;;;5033661;28;20506;-68
2023/06/28 11:23:29;;;;;;;25.67;24.60;;;26.00;99.90;;;;;;5030889;28;20463;-68
2023/06/28 11:26:02;;;;;;;44.33;42.37;;;25.60;99.90;;;;;;5038353;28;20467;-67
2023/06/28 11:28:31;;;;;;;16.53;15.83;;;25.20;99.90;;;;;;5033452;28;20974;-67
2023/06/28 11:31:12;;;;;;;18.30;16.67;;;25.30;99.90;;;;;;5036018;28;20962;-66
2023/06/28 11:33:41;;;;;;;16.70;16.00;;;25.30;99.90;;;;;;5035922;28;20575;-67
2023/06/28 11:36:10;;;;;;;16.50;15.80;;;25.50;99.90;;;;;;5042118;28;20570;-67
2023/06/28 11:38:37;;;;;;;17.07;16.17;;;25.50;99.90;;;;;;5029567;28;20468;-66
2023/06/28 11:41:05;;;;;;;17.27;16.47;;;25.60;99.90;;;;;;5028154;28;20463;-67
2023/06/28 11:43:32;;;;;;;17.63;16.83;;;25.90;99.90;;;;;;5043279;28;20460;-68
2023/06/28 11:45:59;;;;;;;18.60;17.13;;;26.10;99.90;;;;;;5036548;28;21039;-67
2023/06/28 11:48:27;;;;;;;18.80;17.57;;;26.30;99.90;;;;;;5037296;28;20471;-67
2023/06/28 11:50:59;;;;;;;17.97;16.97;;;26.30;99.90;;;;;;5030093;28;20933;-66
2023/06/28 11:53:27;;;;;;;16.60;15.90;;;26.70;99.90;;;;;;5035535;28;20799;-68
2023/06/28 11:55:55;;;;;;;21.57;20.60;;;26.90;99.90;;;;;;5031194;28;20592;-66
2023/06/28 11:58:30;;;;;;;24.13;23.17;;;27.30;99.90;;;;;;5028159;28;20547;-67
2023/06/28 12:00:57;;;;;;;23.97;22.87;;;27.20;99.90;;;;;;5033193;28;20455;-66
2023/06/28 12:03:32;;;;;;;17.70;16.90;;;27.10;99.90;;;;;;5035713;28;20975;-66
2023/06/28 12:06:01;;;;;;;22.30;21.37;;;27.30;99.90;;;;;;5034933;28;20516;-67
2023/06/28 12:08:33;;;;;;;29.47;28.10;;;27.50;99.90;;;;;;5038975;28;20463;-67
2023/06/28 12:11:00;;;;;;;17.60;16.80;;;27.70;99.90;;;;;;5031278;28;21050;-67
2023/06/28 12:13:28;;;;;;;17.70;16.90;;;27.80;99.90;;;;;;5043158;28;20513;-66
2023/06/28 12:15:56;;;;;;;17.40;16.70;;;27.90;99.90;;;;;;5039510;28;20545;-65
2023/06/28 12:18:53;;;;;;;17.10;16.40;;;27.80;99.90;;;;;;5038670;28;20449;-67
2023/06/28 12:21:22;;;;;;;17.80;17.00;;;28.50;99.90;;;;;;5034611;28;20556;-66
2023/06/28 12:23:50;;;;;;;17.03;16.33;;;28.40;99.90;;;;;;5028888;28;23296;-66
2023/06/28 12:26:17;;;;;;;18.77;17.80;;;28.00;99.90;;;;;;5035576;28;20467;-66
2023/06/28 12:28:48;;;;;;;16.87;16.17;;;28.40;99.90;;;;;;5036618;28;20509;-67
2023/06/28 12:31:15;;;;;;;19.93;17.97;;;28.40;99.90;;;;;;5033766;28;21276;-66
2023/06/28 12:33:43;;;;;;;19.90;19.00;;;28.40;99.90;;;;;;5037102;28;20468;-66